createdAt,value
2023-01-02T00:02:26.027Z,92.41
2023-01-02T00:04:55.818Z,92.05
2023-01-02T00:07:24.336Z,92.21
2023-01-02T00:09:52.750Z,92.32
2023-01-02T00:12:21.793Z,92.39
2023-01-02T00:14:56.209Z,92.29
2023-01-02T00:17:24.748Z,92.04
2023-01-02T00:19:53.199Z,92.17
2023-01-02T00:22:21.635Z,92.21
2023-01-02T00:24:50.081Z,91.74
2023-01-02T00:27:18.514Z,91.67
2023-01-02T00:29:47.494Z,91.67
2023-01-02T00:32:19.047Z,91.56
2023-01-02T00:34:56.314Z,91.20
2023-01-02T00:37:27.162Z,91.65
2023-01-02T00:39:55.588Z,91.49
2023-01-02T00:42:24.001Z,91.73
2023-01-02T00:44:52.486Z,91.84
2023-01-02T00:47:24.379Z,91.67
2023-01-02T00:49:52.821Z,91.88
2023-01-02T00:52:21.161Z,92.19
2023-01-02T00:54:51.810Z,92.12
2023-01-02T00:57:20.393Z,92.07
2023-01-02T00:59:48.783Z,92.06
2023-01-02T01:02:17.391Z,92.33
2023-01-02T01:04:47.376Z,92.70
2023-01-02T01:07:15.819Z,92.74
2023-01-02T01:09:44.218Z,92.60
2023-01-02T01:12:12.908Z,92.70
2023-01-02T01:14:41.334Z,92.72
2023-01-02T01:17:10.089Z,92.98
2023-01-02T01:19:38.597Z,92.94
2023-01-02T01:22:08.688Z,93.32
2023-01-02T01:24:37.172Z,93.30
2023-01-02T01:27:05.710Z,93.24
2023-01-02T01:29:34.178Z,93.30
2023-01-02T01:32:02.761Z,93.13
2023-01-02T01:34:31.309Z,93.15
2023-01-02T01:37:02.130Z,93.19
2023-01-02T01:39:31.926Z,93.37
2023-01-02T01:42:01.024Z,93.19
2023-01-02T01:44:52.003Z,93.09
2023-01-02T01:47:41.879Z,93.41
2023-01-02T01:50:17.562Z,93.34
2023-01-02T01:52:52.752Z,93.21
2023-01-02T01:55:27.491Z,93.29
2023-01-02T01:58:00.269Z,93.02
2023-01-02T02:00:31.535Z,92.75
2023-01-02T02:03:08.040Z,92.42
2023-01-02T02:05:37.833Z,92.04
2023-01-02T02:08:20.022Z,91.92
2023-01-02T02:10:51.584Z,91.74
2023-01-02T02:13:20.469Z,91.55
2023-01-02T02:16:04.293Z,91.53
2023-01-02T02:19:04.717Z,91.20
2023-01-02T02:22:02.508Z,90.61
2023-01-02T02:25:17.925Z,90.76
2023-01-02T02:28:29.865Z,90.30
2023-01-02T02:31:13.011Z,90.18
2023-01-02T02:33:55.663Z,90.03
2023-01-02T02:36:35.695Z,90.18
2023-01-02T02:39:19.374Z,90.28
2023-01-02T02:41:58.639Z,90.68
2023-01-02T02:44:41.945Z,90.37
2023-01-02T02:47:23.181Z,90.04
2023-01-02T02:50:03.890Z,89.78
2023-01-02T02:52:41.412Z,89.50
2023-01-02T02:55:16.440Z,88.85
2023-01-02T02:57:47.632Z,89.02
2023-01-02T03:00:20.095Z,88.33
2023-01-02T03:02:50.117Z,88.42
2023-01-02T03:05:26.687Z,88.22
2023-01-02T03:08:05.016Z,87.71
2023-01-02T03:10:48.159Z,87.69
2023-01-02T03:13:26.496Z,87.62
2023-01-02T03:16:06.273Z,87.15
2023-01-02T03:18:43.007Z,86.75
2023-01-02T03:21:18.252Z,86.32
2023-01-02T03:23:50.934Z,85.59
2023-01-02T03:26:27.676Z,85.61
2023-01-02T03:29:10.373Z,85.12
2023-01-02T03:31:45.077Z,85.35
2023-01-02T03:34:22.549Z,84.92
2023-01-02T03:36:56.879Z,84.85
2023-01-02T03:39:32.308Z,84.75
2023-01-02T03:42:08.813Z,84.92
2023-01-02T03:44:45.568Z,85.00
2023-01-02T03:47:28.829Z,84.83
2023-01-02T03:50:04.113Z,84.47
2023-01-02T03:52:32.681Z,84.49
2023-01-02T03:55:02.724Z,84.59
2023-01-02T03:57:44.338Z,84.64
2023-01-02T04:00:18.353Z,84.23
2023-01-02T04:02:57.896Z,83.94
2023-01-02T04:05:39.781Z,83.87
2023-01-02T04:08:18.341Z,83.86
2023-01-02T04:10:56.297Z,83.68
2023-01-02T04:13:33.624Z,83.50
2023-01-02T04:16:04.176Z,83.91
2023-01-02T04:18:46.414Z,83.54
2023-01-02T04:21:23.109Z,83.50
2023-01-02T04:24:00.135Z,83.68
2023-01-02T04:26:36.239Z,83.62
2023-01-02T04:29:05.340Z,83.87
2023-01-02T04:31:44.366Z,83.51
2023-01-02T04:34:18.270Z,83.65
2023-01-02T04:36:48.261Z,84.09
2023-01-02T04:39:16.739Z,83.61
2023-01-02T04:41:45.193Z,83.19
2023-01-02T04:44:13.614Z,82.99
2023-01-02T04:46:42.020Z,83.21
2023-01-02T04:49:11.188Z,83.23
2023-01-02T04:51:39.875Z,82.96
2023-01-02T04:54:13.257Z,83.31
2023-01-02T04:56:42.880Z,82.81
2023-01-02T04:59:31.039Z,82.86
2023-01-02T05:02:00.056Z,82.65
2023-01-02T05:04:30.717Z,82.58
2023-01-02T05:06:59.667Z,82.99
2023-01-02T05:09:29.556Z,82.87
2023-01-02T05:11:58.183Z,82.57
2023-01-02T05:14:27.961Z,82.57
2023-01-02T05:16:56.458Z,82.52
2023-01-02T05:19:24.883Z,82.68
2023-01-02T05:22:10.756Z,82.72
2023-01-02T05:24:40.545Z,82.91
2023-01-02T05:27:09.006Z,82.64
2023-01-02T05:29:40.400Z,82.89
2023-01-02T05:32:08.885Z,83.04
2023-01-02T05:34:37.319Z,83.04
2023-01-02T05:37:05.785Z,83.42
2023-01-02T05:39:34.180Z,83.29
2023-01-02T05:42:04.094Z,83.37
2023-01-02T05:44:32.565Z,83.84
2023-01-02T05:47:01.997Z,84.33
2023-01-02T05:49:30.458Z,84.84
2023-01-02T05:51:58.922Z,84.68
2023-01-02T05:54:27.349Z,85.15
2023-01-02T05:56:57.630Z,85.24
2023-01-02T05:59:27.458Z,85.40
2023-01-02T06:01:57.298Z,85.39
2023-01-02T06:04:39.112Z,85.21
2023-01-02T06:07:07.751Z,85.43
2023-01-02T06:09:36.181Z,85.01
2023-01-02T06:12:05.455Z,84.91
2023-01-02T06:14:35.256Z,84.38
2023-01-02T06:17:03.876Z,83.90
2023-01-02T06:19:35.130Z,83.59
2023-01-02T06:22:03.528Z,83.47
2023-01-02T06:24:31.983Z,83.26
2023-01-02T06:27:00.700Z,83.00
2023-01-02T06:29:30.834Z,83.15
2023-01-02T06:32:00.666Z,82.85
2023-01-02T06:34:29.102Z,82.95
2023-01-02T06:36:57.535Z,82.84
2023-01-02T06:39:27.439Z,83.04
2023-01-02T06:41:56.013Z,82.97
2023-01-02T06:44:24.469Z,82.78
2023-01-02T06:46:53.218Z,83.07
2023-01-02T06:49:23.195Z,82.95
2023-01-02T06:52:00.175Z,82.94
2023-01-02T06:54:29.024Z,83.13
2023-01-02T06:56:57.462Z,83.30
2023-01-02T06:59:27.594Z,83.50
2023-01-02T07:01:56.178Z,83.59
2023-01-02T07:04:26.027Z,83.81
2023-01-02T07:06:54.466Z,83.97
2023-01-02T07:09:22.893Z,83.69
2023-01-02T07:11:51.573Z,83.55
2023-01-02T07:14:20.243Z,83.31
2023-01-02T07:16:48.679Z,83.42
2023-01-02T07:19:17.597Z,83.46
2023-01-02T07:21:47.472Z,83.40
2023-01-02T07:24:17.021Z,83.01
2023-01-02T07:26:45.557Z,83.12
2023-01-02T07:29:14.612Z,82.92
2023-01-02T07:31:43.077Z,83.04
2023-01-02T07:34:11.817Z,82.63
2023-01-02T07:36:40.389Z,82.56
2023-01-02T07:39:10.418Z,82.71
2023-01-02T07:41:38.855Z,82.49
2023-01-02T07:44:15.284Z,81.90
2023-01-02T07:46:44.252Z,81.39
2023-01-02T07:49:13.521Z,80.93
2023-01-02T07:51:42.167Z,80.31
2023-01-02T07:54:11.972Z,79.65
2023-01-02T07:56:40.429Z,79.39
2023-01-02T07:59:09.133Z,79.05
2023-01-02T08:01:37.903Z,78.72
2023-01-02T08:04:06.392Z,78.54
2023-01-02T08:06:37.584Z,78.36
2023-01-02T08:09:07.442Z,77.96
2023-01-02T08:11:43.848Z,77.96
2023-01-02T08:14:23.450Z,77.46
2023-01-02T08:17:01.020Z,77.79
2023-01-02T08:19:29.481Z,76.70
2023-01-02T08:21:57.824Z,75.92
2023-01-02T08:24:26.242Z,75.54
2023-01-02T08:26:55.965Z,76.14
2023-01-02T08:29:24.344Z,76.24
2023-01-02T08:31:52.706Z,75.52
2023-01-02T08:34:21.563Z,74.36
2023-01-02T08:36:49.990Z,74.79
2023-01-02T08:39:18.423Z,74.29
2023-01-02T08:41:46.803Z,74.44
2023-01-02T08:44:17.282Z,74.78
2023-01-02T08:46:46.071Z,74.29
2023-01-02T08:49:14.509Z,74.38
2023-01-02T08:51:43.925Z,74.55
2023-01-02T08:54:12.383Z,73.98
2023-01-02T08:56:41.507Z,74.50
2023-01-02T08:59:13.696Z,74.84
2023-01-02T09:01:43.855Z,74.42
2023-01-02T09:04:13.525Z,73.58
2023-01-02T09:06:45.388Z,72.73
2023-01-02T09:09:16.613Z,71.83
2023-01-02T09:11:50.403Z,71.70
2023-01-02T09:14:21.841Z,72.37
2023-01-02T09:16:53.943Z,71.84
2023-01-02T09:19:23.013Z,71.85
2023-01-02T09:21:54.074Z,71.27
2023-01-02T09:24:22.523Z,71.52
2023-01-02T09:26:50.931Z,71.77
2023-01-02T09:29:22.615Z,71.46
2023-01-02T09:31:52.419Z,71.24
2023-01-02T09:34:20.843Z,71.24
2023-01-02T09:36:49.363Z,70.48
2023-01-02T09:39:18.031Z,70.37
2023-01-02T09:41:52.185Z,70.66
2023-01-02T09:44:27.248Z,70.57
2023-01-02T09:47:02.139Z,70.43
2023-01-02T09:49:42.302Z,70.60
2023-01-02T09:52:20.347Z,71.27
2023-01-02T09:54:49.723Z,70.52
2023-01-02T09:57:38.011Z,69.60
2023-01-02T10:00:15.935Z,69.80
2023-01-02T10:03:08.522Z,70.09
2023-01-02T10:06:02.411Z,69.99
2023-01-02T10:08:43.376Z,69.70
2023-01-02T10:11:31.069Z,69.85
2023-01-02T10:14:20.633Z,70.04
2023-01-02T10:16:56.114Z,69.18
2023-01-02T10:19:41.884Z,70.20
2023-01-02T10:22:16.533Z,69.88
2023-01-02T10:24:53.161Z,69.33
2023-01-02T10:27:31.069Z,69.21
2023-01-02T10:30:14.855Z,68.89
2023-01-02T10:32:49.044Z,68.20
2023-01-02T10:35:35.799Z,67.70
2023-01-02T10:38:04.951Z,67.63
2023-01-02T10:40:35.018Z,67.47
2023-01-02T10:43:03.836Z,67.54
2023-01-02T10:45:34.544Z,67.27
2023-01-02T10:48:05.360Z,67.22
2023-01-02T10:50:43.275Z,66.54
2023-01-02T10:53:24.092Z,66.50
2023-01-02T10:55:52.546Z,65.46
2023-01-02T10:58:25.279Z,65.03
2023-01-02T11:01:06.110Z,65.44
2023-01-02T11:03:35.415Z,65.17
2023-01-02T11:06:30.076Z,64.23
2023-01-02T11:09:03.600Z,63.03
2023-01-02T11:11:33.963Z,63.59
2023-01-02T11:14:11.512Z,63.64
2023-01-02T11:16:42.764Z,64.24
2023-01-02T11:19:29.118Z,64.98
2023-01-02T11:21:59.658Z,65.79
2023-01-02T11:24:28.681Z,66.18
2023-01-02T11:27:02.869Z,66.56
2023-01-02T11:29:36.045Z,66.97
2023-01-02T11:32:06.194Z,67.16
2023-01-02T11:34:38.367Z,67.47
2023-01-02T11:37:18.074Z,67.78
2023-01-02T11:40:02.833Z,68.23
2023-01-02T11:42:58.529Z,68.14
2023-01-02T11:45:27.978Z,67.62
2023-01-02T11:48:02.731Z,67.33
2023-01-02T11:50:35.598Z,67.24
2023-01-02T11:53:18.976Z,66.49
2023-01-02T11:55:55.690Z,65.53
2023-01-02T11:58:41.965Z,64.15
2023-01-02T12:01:26.829Z,64.04
2023-01-02T12:03:56.198Z,64.17
2023-01-02T12:06:33.743Z,63.36
2023-01-02T12:09:12.366Z,61.82
2023-01-02T12:12:06.599Z,62.75
2023-01-02T12:15:04.705Z,62.34
2023-01-02T12:17:46.939Z,62.42
2023-01-02T12:20:43.194Z,62.63
2023-01-02T12:23:53.382Z,62.81
2023-01-02T12:26:33.541Z,63.17
2023-01-02T12:29:48.817Z,63.19
2023-01-02T12:32:58.358Z,63.83
2023-01-02T12:36:06.117Z,63.47
2023-01-02T12:38:55.687Z,63.60
2023-01-02T12:41:35.522Z,62.63
2023-01-02T12:44:47.116Z,63.07
2023-01-02T12:47:39.600Z,63.07
2023-01-02T12:50:54.949Z,63.05
2023-01-02T12:53:48.151Z,63.25
2023-01-02T12:56:46.627Z,63.88
2023-01-02T12:59:49.984Z,63.93
2023-01-02T13:02:42.173Z,63.69
2023-01-02T13:05:17.938Z,64.12
2023-01-02T13:07:54.114Z,64.04
2023-01-02T13:10:28.151Z,64.63
2023-01-02T13:13:01.741Z,64.51
2023-01-02T13:15:35.446Z,64.80
2023-01-02T13:18:11.610Z,64.85
2023-01-02T13:20:52.114Z,65.39
2023-01-02T13:23:39.693Z,65.54
2023-01-02T13:26:14.084Z,66.11
2023-01-02T13:28:53.203Z,66.76
2023-01-02T13:34:22.152Z,67.09
2023-01-02T13:36:58.768Z,67.77
2023-01-02T13:39:33.751Z,67.83
2023-01-02T13:42:22.914Z,67.73
2023-01-02T13:44:57.280Z,68.46
2023-01-02T13:47:34.751Z,68.30
2023-01-02T13:50:16.379Z,68.82
2023-01-02T13:53:08.120Z,68.74
2023-01-02T13:55:38.249Z,68.65
2023-01-02T13:58:41.534Z,68.36
2023-01-02T14:02:15.176Z,68.73
2023-01-02T14:04:44.105Z,69.03
2023-01-02T14:07:49.216Z,69.01
2023-01-02T14:10:34.753Z,69.09
2023-01-02T14:13:17.603Z,69.55
2023-01-02T14:16:41.199Z,69.65
2023-01-02T14:19:24.902Z,69.90
2023-01-02T14:22:05.168Z,70.14
2023-01-02T14:24:38.866Z,70.29
2023-01-02T14:27:21.310Z,69.96
2023-01-02T14:29:54.689Z,70.07
2023-01-02T14:32:36.455Z,70.57
2023-01-02T14:35:25.684Z,70.81
2023-01-02T14:38:07.291Z,70.97
2023-01-02T14:40:39.745Z,71.11
2023-01-02T14:43:32.503Z,71.20
2023-01-02T14:46:11.803Z,71.73
2023-01-02T14:48:54.900Z,71.51
2023-01-02T14:51:34.012Z,71.70
2023-01-02T14:54:15.643Z,71.77
2023-01-02T14:56:50.054Z,72.29
2023-01-02T14:59:28.202Z,72.66
2023-01-02T15:02:04.416Z,72.71
2023-01-02T15:04:40.303Z,73.25
2023-01-02T15:07:18.557Z,73.22
2023-01-02T15:09:52.649Z,73.72
2023-01-02T15:12:46.756Z,73.77
2023-01-02T15:15:18.997Z,74.09
2023-01-02T15:17:50.175Z,74.41
2023-01-02T15:20:21.988Z,74.34
2023-01-02T15:22:54.717Z,74.78
2023-01-02T15:25:35.215Z,74.54
2023-01-02T15:28:09.147Z,74.73
2023-01-02T15:30:40.091Z,74.42
2023-01-02T15:33:29.997Z,75.27
2023-01-02T15:36:03.146Z,75.31
2023-01-02T15:38:33.555Z,75.21
2023-01-02T15:41:02.091Z,75.77
2023-01-02T15:43:52.243Z,75.82
2023-01-02T15:46:24.024Z,76.43
2023-01-02T15:48:54.028Z,76.88
2023-01-02T15:51:41.463Z,77.76
2023-01-02T15:54:18.647Z,77.45
2023-01-02T15:56:49.085Z,77.75
2023-01-02T15:59:30.604Z,78.92
2023-01-02T16:01:59.097Z,78.22
2023-01-02T16:04:30.405Z,78.76
2023-01-02T16:07:02.282Z,78.66
2023-01-02T16:09:32.979Z,78.89
2023-01-02T16:12:05.719Z,79.24
2023-01-02T16:14:51.355Z,79.65
2023-01-02T16:17:27.280Z,79.45
2023-01-02T16:20:03.058Z,80.01
2023-01-02T16:22:43.007Z,79.40
2023-01-02T16:25:20.365Z,79.79
2023-01-02T16:27:54.965Z,80.07
2023-01-02T16:30:43.322Z,80.82
2023-01-02T16:33:28.104Z,80.99
2023-01-02T16:36:21.742Z,80.58
2023-01-02T16:39:14.577Z,80.87
2023-01-02T16:42:15.217Z,80.87
2023-01-02T16:44:54.982Z,80.87
2023-01-02T16:47:25.697Z,81.02
2023-01-02T16:49:58.643Z,81.06
2023-01-02T16:52:33.903Z,81.83
2023-01-02T16:55:03.861Z,81.71
2023-01-02T16:57:33.989Z,81.61
2023-01-02T17:00:02.458Z,81.72
2023-01-02T17:02:31.331Z,81.53
2023-01-02T17:04:59.931Z,81.43
2023-01-02T17:07:32.016Z,81.14
2023-01-02T17:10:03.815Z,80.95
2023-01-02T17:13:04.604Z,80.63
2023-01-02T17:15:48.888Z,79.71
2023-01-02T17:18:22.029Z,79.27
2023-01-02T17:20:52.746Z,78.82
2023-01-02T17:23:22.544Z,78.58
2023-01-02T17:25:52.939Z,78.26
2023-01-02T17:28:29.707Z,77.95
2023-01-02T17:31:05.178Z,78.05
2023-01-02T17:33:38.865Z,77.65
2023-01-02T17:36:27.794Z,77.42
2023-01-02T17:38:58.910Z,77.79
2023-01-02T17:41:39.869Z,78.03
2023-01-02T17:44:32.126Z,78.01
2023-01-02T17:47:48.299Z,78.74
2023-01-02T17:50:09.918Z,78.21
2023-01-02T17:52:41.263Z,78.89
2023-01-02T17:55:10.959Z,79.01
2023-01-02T17:57:50.776Z,79.40
2023-01-02T18:00:51.224Z,79.65
2023-01-02T18:03:32.230Z,79.95
2023-01-02T18:06:12.003Z,80.17
2023-01-02T18:08:46.918Z,80.82
2023-01-02T18:11:18.921Z,81.22
2023-01-02T18:13:51.623Z,80.96
2023-01-02T18:16:29.481Z,81.49
2023-01-02T18:18:58.165Z,81.96
2023-01-02T18:21:32.437Z,81.63
2023-01-02T18:24:09.248Z,81.89
2023-01-02T18:26:40.141Z,82.58
2023-01-02T18:29:25.351Z,82.77
2023-01-02T18:31:56.120Z,83.15
2023-01-02T18:34:47.798Z,82.86
2023-01-02T18:37:24.824Z,80.60
2023-01-02T18:40:06.659Z,79.46
2023-01-02T18:42:38.482Z,78.29
2023-01-02T18:45:19.193Z,79.23
2023-01-02T18:47:59.399Z,80.20
2023-01-02T18:50:49.597Z,79.53
2023-01-02T18:53:45.539Z,80.60
2023-01-02T18:56:19.663Z,81.47
2023-01-02T18:59:00.708Z,82.07
2023-01-02T19:01:33.963Z,83.08
2023-01-02T19:04:28.330Z,84.31
2023-01-02T19:07:00.465Z,84.91
2023-01-02T19:09:38.208Z,86.03
2023-01-02T19:12:43.918Z,86.30
2023-01-02T19:15:46.758Z,88.00
2023-01-02T19:18:38.151Z,89.49
2023-01-02T19:21:29.085Z,90.30
2023-01-02T19:24:02.240Z,91.72
2023-01-02T19:26:42.440Z,92.87
2023-01-02T19:29:25.715Z,94.21
2023-01-02T19:32:07.092Z,94.35
2023-01-02T19:34:51.000Z,95.34
2023-01-02T19:37:46.933Z,95.87
2023-01-02T19:40:23.190Z,96.22
2023-01-02T19:42:53.983Z,96.75
2023-01-02T19:45:28.223Z,97.80
2023-01-02T19:47:59.976Z,98.02
2023-01-02T19:50:30.702Z,98.27
2023-01-02T19:53:01.194Z,98.79
2023-01-02T19:55:32.687Z,98.16
2023-01-02T19:58:04.836Z,98.86
2023-01-02T20:00:35.413Z,99.91
2023-01-02T20:03:04.016Z,100.00
2023-01-02T20:05:43.329Z,100.00
2023-01-02T20:08:15.128Z,100.00
2023-01-02T20:10:45.717Z,100.00
2023-01-02T20:13:14.609Z,100.00
2023-01-02T20:15:43.571Z,100.00
2023-01-02T20:18:12.199Z,100.00
2023-01-02T20:20:42.678Z,100.00
2023-01-02T20:23:12.012Z,100.00
2023-01-02T20:25:43.706Z,100.00
2023-01-02T20:28:12.972Z,100.00
2023-01-02T20:30:44.156Z,100.00
2023-01-02T20:33:15.208Z,100.00
2023-01-02T20:35:53.433Z,100.00
2023-01-02T20:38:24.818Z,100.00
2023-01-02T20:40:54.808Z,100.00
2023-01-02T20:43:23.461Z,100.00
2023-01-02T20:45:54.347Z,100.00
2023-01-02T20:48:22.881Z,100.00
2023-01-02T20:50:51.396Z,100.00
2023-01-02T20:53:22.221Z,100.00
2023-01-02T20:55:54.509Z,100.00
2023-01-02T20:58:23.809Z,100.00
2023-01-02T21:00:52.532Z,100.00
2023-01-02T21:03:21.617Z,100.00
2023-01-02T21:05:50.049Z,100.00
2023-01-02T21:08:18.817Z,100.00
2023-01-02T21:10:48.988Z,100.00
2023-01-02T21:13:19.987Z,100.00
2023-01-02T21:15:52.011Z,100.00
2023-01-02T21:18:25.085Z,100.00
2023-01-02T21:20:57.153Z,100.00
2023-01-02T21:23:29.398Z,100.00
2023-01-02T21:25:59.819Z,100.00
2023-01-02T21:28:29.875Z,100.00
2023-01-02T21:30:58.572Z,100.00
2023-01-02T21:33:30.088Z,100.00
2023-01-02T21:36:01.047Z,100.00
2023-01-02T21:38:30.047Z,100.00
2023-01-02T21:41:21.483Z,100.00
2023-01-02T21:43:51.855Z,100.00
2023-01-02T21:46:20.376Z,100.00
2023-01-02T21:48:48.789Z,100.00
2023-01-02T21:51:17.243Z,100.00
2023-01-02T21:53:45.842Z,100.00
2023-01-02T21:56:14.751Z,100.00
2023-01-02T21:58:44.161Z,100.00
2023-01-02T22:01:14.076Z,100.00
2023-01-02T22:03:43.496Z,100.00
2023-01-02T22:06:12.221Z,100.00
2023-01-02T22:08:40.638Z,100.00
2023-01-02T22:11:26.297Z,100.00
2023-01-02T22:13:54.750Z,100.00
2023-01-02T22:16:26.017Z,100.00
2023-01-02T22:18:54.566Z,100.00
2023-01-02T22:21:22.931Z,100.00
2023-01-02T22:23:52.661Z,100.00
2023-01-02T22:26:21.079Z,100.00
2023-01-02T22:28:49.912Z,100.00
2023-01-02T22:31:18.374Z,100.00
2023-01-02T22:33:48.180Z,100.00
2023-01-02T22:36:19.268Z,100.00
2023-01-02T22:39:09.586Z,100.00
2023-01-02T22:41:41.050Z,100.00
2023-01-02T22:44:25.306Z,100.00
2023-01-02T22:46:56.517Z,100.00
2023-01-02T22:49:32.222Z,100.00
2023-01-02T22:52:07.857Z,100.00
2023-01-02T22:54:36.688Z,100.00
2023-01-02T22:57:11.754Z,100.00
2023-01-02T22:59:41.223Z,100.00
2023-01-02T23:02:15.964Z,100.00
2023-01-02T23:04:46.231Z,100.00
2023-01-02T23:07:24.328Z,100.00
2023-01-02T23:09:56.858Z,100.00
2023-01-02T23:12:25.861Z,100.00
2023-01-02T23:14:54.494Z,100.00
2023-01-02T23:17:47.664Z,100.00
2023-01-02T23:20:17.807Z,100.00
2023-01-02T23:22:48.322Z,100.00
2023-01-02T23:25:17.169Z,100.00
2023-01-02T23:27:45.511Z,100.00
2023-01-02T23:30:18.069Z,100.00
2023-01-02T23:32:46.890Z,100.00
2023-01-02T23:35:17.114Z,100.00
2023-01-02T23:37:45.577Z,100.00
2023-01-02T23:40:14.726Z,100.00
2023-01-02T23:42:43.127Z,100.00
2023-01-02T23:45:13.462Z,100.00
2023-01-02T23:47:41.840Z,100.00
2023-01-02T23:50:11.129Z,100.00
2023-01-02T23:52:40.893Z,100.00
2023-01-02T23:55:11.386Z,100.00
2023-01-02T23:57:39.869Z,100.00
